Coal City, Alabama
Current Conditions -  °F | °C
As of 5:35 AM on Thursday 18 Dec 2014 (Local Time) from KASN Reporting Station
Clear Clear  
Wind Chill: 33°   Ceiling: Unl
Heat Index: 33°   Visibility: 7mi
Dew Point: 32°   Wind: 0mph
Humidity: 95%   Direction: NA
Pressure: 30.22"   Gusts: NA
Location:  33.6608°N, 86.2636°W
Report Text: KASN 181135Z AUTO 00000KT 7SM CLR 01/00 A3022 RMK AO2 T00061001
Loading
Personal Weather Stations






























Interactive Weather Map New forecast layout! Learn more

10-Day Weather Forecast

Advertisements
Track Severe Weather on mobile